Time;durP1;ratioP1;P1;durP2;ratioP2;P2;SDS_P1;SDS_P2;PMS_P1;PMS_P2;Temp;Humidity;BMP_temperature;BMP_pressure;BME280_temperature;BME280_humidity;BME280_pressure;Samples;Min_cycle;Max_cycle;Signal;HPM_P1;HPM_P2
2022/01/12 00:01:52;;;;;;;41.80;22.10;;;-1.10;91.10;;;;;;5055365;28;20024;-78
2022/01/12 00:04:17;;;;;;;46.33;22.95;;;-1.10;91.10;;;;;;5072394;28;20114;-78
2022/01/12 00:06:43;;;;;;;45.88;23.00;;;-1.10;91.20;;;;;;5073163;28;20021;-77
2022/01/12 00:09:09;;;;;;;46.35;22.45;;;-1.10;91.20;;;;;;5072570;28;20028;-76
2022/01/12 00:11:36;;;;;;;40.60;21.50;;;-1.10;91.30;;;;;;5073076;28;20503;-78
2022/01/12 00:14:03;;;;;;;44.55;22.30;;;-1.10;91.30;;;;;;5073003;28;20047;-78
2022/01/12 00:16:29;;;;;;;42.40;21.92;;;-1.10;91.20;;;;;;5072169;28;20024;-78
2022/01/12 00:18:54;;;;;;;40.25;22.45;;;-1.10;91.20;;;;;;5072220;28;20112;-78
2022/01/12 00:21:20;;;;;;;43.65;22.30;;;-1.10;91.20;;;;;;5072404;28;20024;-78
2022/01/12 00:23:46;;;;;;;42.97;22.17;;;-1.10;91.20;;;;;;5072982;28;20113;-78
2022/01/12 00:33:08;;;;;;;42.33;23.10;;;-1.10;91.10;;;;;;5072451;28;20028;-78
2022/01/12 00:34:27;;;;;;;42.70;22.08;;;-1.10;91.20;;;;;;5072169;28;20090;-77
2022/01/12 00:36:53;;;;;;;40.75;22.25;;;-1.20;91.10;;;;;;5072417;28;20420;-78
2022/01/12 00:39:19;;;;;;;40.00;21.88;;;-1.20;91.30;;;;;;5072437;28;20354;-78
2022/01/12 00:41:44;;;;;;;41.55;22.05;;;-1.20;91.30;;;;;;5072653;28;20028;-78
2022/01/12 00:44:21;;;;;;;44.97;23.25;;;-1.20;91.30;;;;;;5071962;28;20074;-75
2022/01/12 00:46:46;;;;;;;45.78;22.30;;;-1.20;91.30;;;;;;5072723;28;20380;-78
2022/01/12 00:49:12;;;;;;;41.10;22.17;;;-1.20;91.40;;;;;;5072125;28;20108;-78
2022/01/12 00:51:39;;;;;;;42.50;23.08;;;-1.20;91.50;;;;;;5072520;28;20115;-79
2022/01/12 00:54:08;;;;;;;43.60;21.63;;;-1.20;91.50;;;;;;5072413;28;20411;-76
2022/01/12 00:56:34;;;;;;;45.10;22.85;;;-1.30;91.50;;;;;;5072046;28;20025;-78
2022/01/12 00:59:00;;;;;;;43.03;21.50;;;-1.30;91.70;;;;;;5072379;28;20025;-78
2022/01/12 01:01:27;;;;;;;49.83;23.98;;;-1.30;91.70;;;;;;5072073;28;20028;-79
2022/01/12 01:03:53;;;;;;;39.30;21.60;;;-1.30;91.70;;;;;;5072657;28;20524;-78
2022/01/12 01:06:20;;;;;;;43.70;21.92;;;-1.30;91.80;;;;;;5072002;28;20028;-78
2022/01/12 01:08:50;;;;;;;41.92;22.65;;;-1.30;91.70;;;;;;5072783;28;20040;-79
2022/01/12 01:11:17;;;;;;;40.72;22.42;;;-1.30;91.80;;;;;;5074071;28;20037;-78
2022/01/12 01:13:55;;;;;;;39.78;22.52;;;-1.30;91.90;;;;;;5072389;28;20400;-78
2022/01/12 01:16:27;;;;;;;41.92;22.88;;;-1.30;91.90;;;;;;5071611;28;20024;-79
2022/01/12 01:27:06;;;;;;;44.40;22.70;;;-1.30;92.00;;;;;;5072514;28;20032;-78
2022/01/12 01:29:32;;;;;;;43.67;23.02;;;-1.40;92.10;;;;;;5072019;28;20033;-78
2022/01/12 01:31:58;;;;;;;47.00;23.98;;;-1.40;92.20;;;;;;5076210;28;20582;-77
2022/01/12 01:34:26;;;;;;;42.22;23.48;;;-1.40;92.20;;;;;;5075619;28;20024;-78
2022/01/12 01:36:54;;;;;;;44.83;24.00;;;-1.40;92.30;;;;;;5076084;28;20033;-78
2022/01/12 01:39:26;;;;;;;43.20;23.00;;;-1.50;92.40;;;;;;5075443;28;20039;-78
2022/01/12 01:41:54;;;;;;;;;;;-1.40;92.60;;;;;;5076511;28;20435;-77
2022/01/12 01:54:53;;;;;;;46.70;22.98;;;-1.50;92.80;;;;;;5075494;28;20534;-77
2022/01/12 01:57:19;;;;;;;45.08;22.92;;;-1.50;92.90;;;;;;5075330;28;20024;-79
2022/01/12 01:59:45;;;;;;;46.35;24.05;;;-1.50;92.90;;;;;;5075348;28;20067;-78
2022/01/12 02:02:11;;;;;;;46.97;23.75;;;-1.50;92.90;;;;;;5075893;28;20082;-79
2022/01/12 02:04:38;;;;;;;47.22;23.30;;;-1.50;92.90;;;;;;5081191;28;20028;-79
2022/01/12 02:07:04;;;;;;;47.17;24.80;;;-1.50;92.90;;;;;;5062151;28;20031;-77
2022/01/12 02:09:29;;;;;;;47.13;24.38;;;-1.50;92.90;;;;;;5076976;28;20032;-78
2022/01/12 02:11:55;;;;;;;46.35;23.35;;;-1.60;92.80;;;;;;5076557;28;20078;-78
2022/01/12 02:14:21;;;;;;;47.13;23.85;;;-1.60;92.80;;;;;;5075429;28;20028;-78
2022/01/12 02:16:58;;;;;;;41.00;23.33;;;-1.60;92.80;;;;;;5076143;28;20059;-79
2022/01/12 02:36:21;;;;;;;47.47;23.77;;;-1.70;93.40;;;;;;5076097;28;20389;-77
2022/01/12 02:41:32;;;;;;;41.70;22.38;;;-1.80;93.40;;;;;;5074927;28;20447;-72
2022/01/12 02:54:46;;;;;;;47.25;24.23;;;-1.70;93.40;;;;;;5073252;28;20406;-71
2022/01/12 02:57:12;;;;;;;42.97;23.40;;;-1.70;93.40;;;;;;5074023;28;20025;-71
2022/01/12 02:59:44;;;;;;;45.08;22.98;;;-1.70;93.40;;;;;;5073506;28;20192;-70
2022/01/12 03:04:38;;;;;;;45.33;23.33;;;-1.70;93.30;;;;;;5073474;28;20500;-72
2022/01/12 03:07:10;;;;;;;41.30;22.75;;;-1.70;93.20;;;;;;5073870;28;20082;-72
2022/01/12 03:09:35;;;;;;;44.38;22.95;;;-1.60;93.20;;;;;;5073319;28;20121;-71
2022/01/12 03:12:01;;;;;;;45.17;23.73;;;-1.60;93.00;;;;;;5056040;28;20072;-72
2022/01/12 03:14:27;;;;;;;40.28;22.23;;;-1.60;92.90;;;;;;5073021;28;20103;-72
2022/01/12 03:16:53;;;;;;;42.75;22.95;;;-1.60;92.90;;;;;;5073791;28;20035;-72
2022/01/12 03:19:18;;;;;;;42.90;23.27;;;-1.60;92.80;;;;;;5073599;28;20035;-72
2022/01/12 03:21:44;;;;;;;43.60;21.75;;;-1.60;92.80;;;;;;5073332;28;20028;-72
2022/01/12 03:24:09;;;;;;;43.95;21.80;;;-1.60;92.70;;;;;;5073396;28;20115;-71
2022/01/12 03:26:35;;;;;;;45.85;23.75;;;-1.60;92.70;;;;;;5072753;28;20111;-72
2022/01/12 03:29:02;;;;;;;44.58;23.02;;;-1.60;92.60;;;;;;5073396;28;20083;-72
2022/01/12 03:31:30;;;;;;;43.10;23.73;;;-1.50;92.60;;;;;;5072901;28;20116;-72
2022/01/12 03:34:05;;;;;;;46.60;23.27;;;-1.50;92.50;;;;;;5073314;28;20032;-72
2022/01/12 03:36:43;;;;;;;41.22;22.83;;;-1.50;92.50;;;;;;5072839;28;20031;-71
2022/01/12 03:39:11;;;;;;;42.65;23.67;;;-1.50;92.50;;;;;;5073235;28;20033;-71
2022/01/12 03:41:38;;;;;;;44.42;22.83;;;-1.50;92.50;;;;;;5072626;28;20108;-71
2022/01/12 03:44:23;;;;;;;39.40;22.20;;;-1.60;92.30;;;;;;5073176;28;20104;-71
2022/01/12 03:46:57;;;;;;;43.60;23.58;;;-1.60;92.50;;;;;;5054412;28;20362;-72
2022/01/12 03:49:23;;;;;;;42.40;21.27;;;-1.50;92.30;;;;;;5054580;28;20432;-71
2022/01/12 03:51:49;;;;;;;41.00;22.55;;;-1.50;92.20;;;;;;5072726;28;20040;-72
2022/01/12 03:54:15;;;;;;;44.88;22.55;;;-1.60;91.90;;;;;;5071754;28;20029;-72
2022/01/12 03:56:41;;;;;;;41.97;23.60;;;-1.60;92.10;;;;;;5072468;28;20035;-72
2022/01/12 03:59:07;;;;;;;44.40;23.80;;;-1.70;92.10;;;;;;5072585;28;20472;-72
2022/01/12 04:01:34;;;;;;;44.22;24.65;;;-1.70;92.20;;;;;;5072312;28;20032;-72
2022/01/12 04:04:04;;;;;;;45.05;24.40;;;-1.70;92.40;;;;;;5072801;28;20029;-72
2022/01/12 04:09:15;;;;;;;47.90;23.58;;;-1.80;92.50;;;;;;5072480;28;20043;-72
2022/01/12 04:11:41;;;;;;;55.45;26.35;;;-1.90;92.80;;;;;;5072114;28;20037;-71
2022/01/12 04:14:08;;;;;;;48.97;25.75;;;-1.90;93.10;;;;;;5072338;28;20031;-71
2022/01/12 04:16:35;;;;;;;44.38;23.80;;;-1.90;93.20;;;;;;5072134;28;20081;-72
2022/01/12 04:19:01;;;;;;;46.10;25.73;;;-1.90;93.30;;;;;;5054731;28;20033;-71
2022/01/12 04:21:29;;;;;;;46.42;24.70;;;-1.90;93.40;;;;;;5072013;28;20450;-70
2022/01/12 04:23:59;;;;;;;49.67;25.35;;;-2.00;93.30;;;;;;5072501;28;20039;-71
2022/01/12 04:26:26;;;;;;;47.13;25.33;;;-2.00;93.50;;;;;;5071987;28;20177;-71
2022/01/12 04:28:52;;;;;;;52.97;25.98;;;-2.10;93.80;;;;;;5072118;28;20491;-72
2022/01/12 04:31:18;;;;;;;49.70;26.13;;;-2.10;93.80;;;;;;5072363;28;20115;-71
2022/01/12 04:33:46;;;;;;;50.28;25.10;;;-2.20;94.10;;;;;;5071971;28;20329;-71
2022/01/12 04:36:12;;;;;;;48.95;25.08;;;-2.20;94.30;;;;;;5072053;28;20435;-71
2022/01/12 04:38:40;;;;;;;52.78;26.77;;;-2.30;94.50;;;;;;5071727;28;20024;-70
2022/01/12 04:41:07;;;;;;;48.88;25.38;;;-2.30;94.70;;;;;;5072300;28;20028;-72
2022/01/12 04:43:35;;;;;;;49.20;25.50;;;-2.30;94.80;;;;;;5071776;28;20020;-72
2022/01/12 04:48:38;;;;;;;47.65;25.73;;;-2.40;95.00;;;;;;5071817;28;20503;-71
2022/01/12 04:51:03;;;;;;;49.45;25.40;;;-2.40;95.20;;;;;;5054381;28;20107;-72
2022/01/12 04:53:31;;;;;;;49.45;25.17;;;-2.50;95.30;;;;;;5071617;28;20438;-71
2022/01/12 04:55:57;;;;;;;50.83;26.05;;;-2.50;95.50;;;;;;5072131;28;20048;-72
2022/01/12 04:58:23;;;;;;;51.38;26.27;;;-2.50;95.60;;;;;;5071779;28;20028;-72
2022/01/12 05:00:51;;;;;;;49.42;26.13;;;-2.50;95.70;;;;;;5071866;28;20103;-73
2022/01/12 05:13:58;;;;;;;47.05;25.38;;;-2.50;95.50;;;;;;5075750;28;20495;-73
2022/01/12 05:16:24;;;;;;;49.53;25.02;;;-2.50;95.60;;;;;;5075649;28;20428;-74
2022/01/12 05:18:52;;;;;;;51.08;26.17;;;-2.50;95.50;;;;;;5074481;28;20024;-72
2022/01/12 05:21:21;;;;;;;55.70;27.63;;;-2.50;95.40;;;;;;5056473;28;20075;-73
2022/01/12 05:23:47;;;;;;;51.10;26.10;;;-2.50;95.60;;;;;;5075023;28;20028;-72
2022/01/12 05:26:32;;;;;;;50.92;26.42;;;-2.50;95.30;;;;;;5075775;28;20418;-72
2022/01/12 05:28:58;;;;;;;53.17;25.77;;;-2.50;95.30;;;;;;5075791;28;20029;-73
2022/01/12 05:31:24;;;;;;;53.42;26.35;;;-2.50;95.20;;;;;;5075863;28;20534;-72
2022/01/12 05:33:50;;;;;;;48.40;25.15;;;-2.50;95.30;;;;;;5075099;28;20052;-72
2022/01/12 05:36:18;;;;;;;50.47;25.65;;;-2.50;95.30;;;;;;5075445;28;20032;-72
2022/01/12 05:38:45;;;;;;;53.15;26.77;;;-2.50;95.30;;;;;;5057030;28;20032;-71
2022/01/12 05:41:11;;;;;;;46.72;25.73;;;-2.50;95.30;;;;;;5075239;28;20056;-72
2022/01/12 05:43:38;;;;;;;49.25;25.88;;;-2.50;95.10;;;;;;5057001;28;20115;-73
2022/01/12 05:46:11;;;;;;;50.25;26.15;;;-2.50;95.10;;;;;;5075375;28;20089;-73
2022/01/12 05:51:26;;;;;;;52.13;26.25;;;-2.50;95.40;;;;;;5075123;28;20504;-71
2022/01/12 05:53:52;;;;;;;48.45;26.48;;;-2.50;95.30;;;;;;5074429;28;20029;-72
2022/01/12 05:56:18;;;;;;;48.75;25.27;;;-2.40;95.30;;;;;;5074236;28;20052;-72
2022/01/12 05:58:44;;;;;;;56.80;27.70;;;-2.40;95.20;;;;;;5074084;28;20025;-72
2022/01/12 06:01:09;;;;;;;48.28;25.42;;;-2.50;95.20;;;;;;5057045;28;20048;-72
2022/01/12 06:03:35;;;;;;;49.63;25.45;;;-2.40;95.30;;;;;;5074423;28;20035;-71
2022/01/12 06:06:01;;;;;;;47.30;24.92;;;-2.40;95.30;;;;;;5074927;28;20025;-72
2022/01/12 06:11:10;;;;;;;49.15;25.13;;;-2.40;95.30;;;;;;5074503;28;20187;-72
2022/01/12 06:13:36;;;;;;;50.75;26.00;;;-2.50;95.30;;;;;;5074333;28;20150;-71
2022/01/12 06:16:02;;;;;;;44.55;25.02;;;-2.50;95.50;;;;;;5073858;28;20535;-72
2022/01/12 06:18:28;;;;;;;47.25;25.05;;;-2.50;95.50;;;;;;5074559;28;20468;-72
2022/01/12 06:20:53;;;;;;;52.90;25.58;;;-2.50;95.80;;;;;;5073673;28;20121;-72
2022/01/12 06:23:19;;;;;;;53.10;27.23;;;-2.50;95.90;;;;;;5074217;28;20032;-72
2022/01/12 06:25:45;;;;;;;46.80;26.40;;;-2.50;96.00;;;;;;5055799;28;20028;-71
2022/01/12 06:33:34;;;;;;;54.00;25.92;;;-2.50;96.40;;;;;;5073964;28;20043;-69
2022/01/12 06:35:59;;;;;;;49.67;25.40;;;-2.50;96.50;;;;;;5074287;28;20024;-72
2022/01/12 06:38:25;;;;;;;47.08;25.38;;;-2.50;96.60;;;;;;5074518;28;20095;-72
2022/01/12 06:40:51;;;;;;;51.28;25.88;;;-2.50;96.70;;;;;;5073926;28;20376;-72
2022/01/12 06:43:16;;;;;;;49.50;25.90;;;-2.50;96.80;;;;;;5074112;28;20021;-73
2022/01/12 06:45:42;;;;;;;55.38;25.67;;;-2.50;96.80;;;;;;5073579;28;20095;-71
2022/01/12 06:48:08;;;;;;;51.40;25.17;;;-2.50;96.70;;;;;;5074259;28;20031;-71
2022/01/12 06:50:33;;;;;;;51.20;25.02;;;-2.50;96.90;;;;;;5073150;28;20036;-71
2022/01/12 06:52:59;;;;;;;47.53;26.42;;;-2.50;97.00;;;;;;5074161;28;20489;-72
2022/01/12 06:55:25;;;;;;;49.90;25.85;;;-2.50;97.00;;;;;;5073755;28;20045;-71
2022/01/12 06:57:50;;;;;;;51.05;23.98;;;-2.50;96.90;;;;;;5055583;28;20024;-72
2022/01/12 07:00:16;;;;;;;50.78;25.92;;;-2.50;97.10;;;;;;5074095;28;20389;-72
2022/01/12 07:02:42;;;;;;;45.30;24.10;;;-2.40;97.10;;;;;;5073672;28;20488;-71
2022/01/12 07:05:08;;;;;;;47.47;26.08;;;-2.40;97.20;;;;;;5074083;28;20028;-72
2022/01/12 07:07:34;;;;;;;48.72;24.73;;;-2.40;97.20;;;;;;5073519;28;20020;-69
2022/01/12 07:10:00;;;;;;;46.95;25.17;;;-2.40;97.20;;;;;;5073761;28;20457;-72
2022/01/12 07:12:26;;;;;;;47.28;26.00;;;-2.40;97.20;;;;;;5073912;28;20033;-71
2022/01/12 07:14:52;;;;;;;49.22;25.90;;;-2.30;97.30;;;;;;5073342;28;20146;-72
2022/01/12 07:17:17;;;;;;;49.10;26.05;;;-2.30;97.30;;;;;;5073789;28;20028;-72
2022/01/12 07:19:43;;;;;;;45.13;24.98;;;-2.30;97.30;;;;;;5073226;28;20040;-71
2022/01/12 07:22:08;;;;;;;46.55;24.55;;;-2.20;97.30;;;;;;5073694;28;20075;-73
2022/01/12 07:24:34;;;;;;;49.55;25.92;;;-2.20;97.30;;;;;;5073650;28;20024;-71
2022/01/12 07:27:01;;;;;;;46.38;25.10;;;-2.10;97.20;;;;;;5073235;28;20021;-72
2022/01/12 07:29:26;;;;;;;45.75;23.30;;;-2.10;96.90;;;;;;5073141;28;20393;-73
2022/01/12 07:31:52;;;;;;;47.17;23.85;;;-2.00;96.60;;;;;;5072847;28;20036;-71
2022/01/12 07:34:18;;;;;;;46.90;23.25;;;-2.00;96.40;;;;;;5073141;28;20020;-72
2022/01/12 07:36:44;;;;;;;46.50;23.20;;;-2.00;96.30;;;;;;5072838;28;20034;-72
2022/01/12 07:39:10;;;;;;;40.47;21.60;;;-1.90;95.90;;;;;;5073137;28;20021;-72
2022/01/12 07:41:36;;;;;;;41.83;22.08;;;-1.90;95.90;;;;;;5073137;28;20404;-72
2022/01/12 07:44:01;;;;;;;50.72;24.63;;;-1.80;95.90;;;;;;5055218;28;20418;-72
2022/01/12 07:46:27;;;;;;;46.67;24.15;;;-1.80;95.70;;;;;;5073070;28;20453;-73
2022/01/12 07:48:53;;;;;;;40.72;22.77;;;-1.80;95.50;;;;;;5072253;28;20035;-72
2022/01/12 07:51:18;;;;;;;43.92;22.75;;;-1.70;95.40;;;;;;5072539;28;20426;-73
2022/01/12 07:53:45;;;;;;;44.65;22.77;;;-1.70;94.90;;;;;;5072152;28;20495;-71
2022/01/12 07:56:10;;;;;;;42.05;21.60;;;-1.70;95.00;;;;;;5072760;28;20044;-71
2022/01/12 07:58:36;;;;;;;41.17;22.85;;;-1.70;94.50;;;;;;5072783;28;20040;-73
2022/01/12 08:01:02;;;;;;;41.58;23.67;;;-1.70;94.40;;;;;;5072336;28;20028;-73
2022/01/12 08:03:28;;;;;;;42.63;23.10;;;-1.70;94.30;;;;;;5072366;28;20025;-73
2022/01/12 08:05:54;;;;;;;39.72;21.95;;;-1.70;94.50;;;;;;5072132;28;20036;-73
2022/01/12 08:08:19;;;;;;;43.03;22.65;;;-1.70;94.30;;;;;;5072713;28;20025;-73
2022/01/12 08:10:45;;;;;;;42.80;22.35;;;-1.70;94.30;;;;;;5072008;28;20032;-72
2022/01/12 08:13:11;;;;;;;37.90;22.10;;;-1.70;94.40;;;;;;5072582;28;20030;-73
2022/01/12 08:15:37;;;;;;;47.55;23.48;;;-1.70;94.50;;;;;;5072349;28;20024;-73
2022/01/12 08:18:03;;;;;;;43.45;21.02;;;-1.70;94.50;;;;;;5071712;28;20029;-72
2022/01/12 08:20:28;;;;;;;44.38;23.40;;;-1.70;94.60;;;;;;5072335;28;20024;-72
2022/01/12 08:22:56;;;;;;;42.25;21.95;;;-1.70;94.50;;;;;;5071206;28;20116;-72
2022/01/12 08:25:22;;;;;;;40.80;23.52;;;-1.70;94.50;;;;;;5072430;28;20044;-73
2022/01/12 08:27:48;;;;;;;40.03;21.92;;;-1.70;94.20;;;;;;5071858;28;20089;-73
2022/01/12 08:30:19;;;;;;;38.45;21.88;;;-1.70;94.20;;;;;;5072387;28;20028;-72
2022/01/12 08:32:49;;;;;;;44.95;22.42;;;-1.70;94.40;;;;;;5071960;28;20086;-72
2022/01/12 08:35:16;;;;;;;39.78;21.42;;;-1.70;94.10;;;;;;5072414;28;20033;-72
2022/01/12 08:37:42;;;;;;;46.53;23.10;;;-1.60;94.20;;;;;;5053624;28;20020;-72
2022/01/12 08:40:08;;;;;;;42.63;22.05;;;-1.60;94.00;;;;;;5071800;28;20028;-75
2022/01/12 08:42:34;;;;;;;44.95;23.52;;;-1.50;93.80;;;;;;5054405;28;20025;-73
2022/01/12 08:45:02;;;;;;;39.65;21.70;;;-1.60;93.50;;;;;;5071785;28;20131;-72
2022/01/12 08:47:28;;;;;;;40.33;21.35;;;-1.60;93.30;;;;;;5072303;28;20415;-73
2022/01/12 08:49:53;;;;;;;39.03;21.67;;;-1.60;93.20;;;;;;5071406;28;20056;-73
2022/01/12 08:52:21;;;;;;;40.67;20.08;;;-1.50;93.20;;;;;;5072203;28;20028;-74
2022/01/12 08:54:46;;;;;;;37.55;20.70;;;-1.50;92.80;;;;;;5071517;28;20343;-73
2022/01/12 08:57:12;;;;;;;41.70;20.95;;;-1.50;92.80;;;;;;5071864;28;20024;-74
2022/01/12 08:59:38;;;;;;;39.00;20.88;;;-1.50;92.70;;;;;;5072224;28;20029;-73
2022/01/12 09:02:06;;;;;;;38.22;21.17;;;-1.50;92.30;;;;;;5071743;28;20025;-73
2022/01/12 09:04:32;;;;;;;44.25;21.70;;;-1.40;92.40;;;;;;5072308;28;20059;-74
2022/01/12 09:06:57;;;;;;;40.10;21.52;;;-1.50;92.30;;;;;;5071525;28;20481;-74
2022/01/12 09:09:24;;;;;;;44.80;23.05;;;-1.40;92.50;;;;;;5072169;28;20045;-74
2022/01/12 09:11:51;;;;;;;40.80;22.50;;;-1.40;92.40;;;;;;5071581;28;20060;-72
2022/01/12 09:14:16;;;;;;;34.97;19.88;;;-1.30;92.40;;;;;;5072069;28;20090;-73
2022/01/12 09:16:42;;;;;;;32.75;18.70;;;-1.30;91.50;;;;;;5071970;28;20028;-73
2022/01/12 09:19:09;;;;;;;36.15;19.88;;;-1.30;91.40;;;;;;5071449;28;20107;-72
2022/01/12 09:21:35;;;;;;;31.63;18.02;;;-1.30;91.10;;;;;;5071658;28;20389;-74
2022/01/12 09:24:01;;;;;;;33.15;18.10;;;-1.30;90.70;;;;;;5053431;28;20020;-71
2022/01/12 09:26:26;;;;;;;37.92;20.00;;;-1.30;90.60;;;;;;5072159;28;20035;-72
2022/01/12 09:28:52;;;;;;;30.13;17.90;;;-1.30;90.30;;;;;;5071138;28;20131;-73
2022/01/12 09:31:18;;;;;;;32.22;18.50;;;-1.30;90.30;;;;;;5071665;28;20408;-72
2022/01/12 09:33:48;;;;;;;35.10;18.17;;;-1.30;89.90;;;;;;5071228;28;20025;-71
2022/01/12 09:36:14;;;;;;;36.72;19.23;;;-1.30;90.00;;;;;;5053639;28;20051;-73
2022/01/12 09:38:39;;;;;;;37.58;20.25;;;-1.30;90.20;;;;;;5071534;28;20438;-73
2022/01/12 09:41:05;;;;;;;37.53;20.95;;;-1.30;90.20;;;;;;5071193;28;20149;-73
2022/01/12 09:43:34;;;;;;;38.67;19.90;;;-1.30;90.50;;;;;;5071581;28;20024;-73
2022/01/12 09:46:00;;;;;;;37.08;19.85;;;-1.30;90.60;;;;;;5053041;28;20024;-74
2022/01/12 09:48:26;;;;;;;35.53;19.65;;;-1.20;90.60;;;;;;5071543;28;20142;-73
2022/01/12 09:50:53;;;;;;;46.25;21.65;;;-1.20;90.60;;;;;;5071350;28;20021;-73
2022/01/12 09:53:19;;;;;;;40.75;21.00;;;-1.20;90.40;;;;;;5075342;28;20123;-72
2022/01/12 09:55:46;;;;;;;37.50;21.17;;;-1.20;90.40;;;;;;5075329;28;20055;-73
2022/01/12 09:58:12;;;;;;;38.30;21.17;;;-1.20;90.30;;;;;;5075178;28;20032;-73
2022/01/12 10:00:37;;;;;;;39.47;20.90;;;-1.20;90.30;;;;;;5075172;28;20354;-73
2022/01/12 10:03:11;;;;;;;37.65;21.65;;;-1.20;90.60;;;;;;5074449;28;20059;-74
2022/01/12 10:05:38;;;;;;;37.58;20.77;;;-1.10;90.70;;;;;;5074911;28;20474;-73
2022/01/12 10:08:16;;;;;;;39.63;19.35;;;-1.10;90.60;;;;;;5074449;28;20021;-73
2022/01/12 10:11:06;;;;;;;38.85;20.77;;;-1.10;90.50;;;;;;5074998;28;20032;-74
2022/01/12 10:13:32;;;;;;;37.63;20.57;;;-1.10;90.80;;;;;;5074776;28;20082;-73
2022/01/12 10:16:18;;;;;;;39.72;21.40;;;-1.10;90.90;;;;;;5074320;28;20119;-72
2022/01/12 10:18:56;;;;;;;37.03;20.20;;;-1.00;91.00;;;;;;5056989;28;20354;-73
2022/01/12 10:21:40;;;;;;;40.85;21.65;;;-1.00;90.50;;;;;;5074488;28;20040;-73
2022/01/12 10:24:12;;;;;;;38.83;21.40;;;-0.90;90.80;;;;;;5074151;28;20077;-71
2022/01/12 10:26:43;;;;;;;42.20;21.42;;;-0.90;90.60;;;;;;5074546;28;20385;-73
2022/01/12 10:29:16;;;;;;;40.15;21.67;;;-0.90;90.60;;;;;;5056055;28;20028;-72
2022/01/12 10:31:48;;;;;;;38.00;20.27;;;-0.80;90.90;;;;;;5074522;28;20484;-73
2022/01/12 10:34:14;;;;;;;40.42;20.40;;;-0.90;90.30;;;;;;5074553;28;20078;-72
2022/01/12 10:36:42;;;;;;;35.28;20.77;;;-0.80;90.50;;;;;;5074065;28;20531;-72
2022/01/12 10:39:09;;;;;;;40.25;21.05;;;-0.80;90.60;;;;;;5074243;28;20029;-73
2022/01/12 10:41:35;;;;;;;39.17;21.58;;;-0.80;90.30;;;;;;5074384;28;20108;-74
2022/01/12 10:44:02;;;;;;;36.97;20.00;;;-0.80;90.40;;;;;;5055850;28;20028;-73
2022/01/12 10:46:29;;;;;;;41.22;21.10;;;-0.80;90.60;;;;;;5074276;28;20449;-73
2022/01/12 10:48:57;;;;;;;36.47;19.58;;;-0.70;90.60;;;;;;5073610;28;20039;-73
2022/01/12 10:51:28;;;;;;;42.90;21.67;;;-0.70;90.50;;;;;;5074096;28;20095;-72
2022/01/12 10:53:58;;;;;;;;;;;-0.70;90.40;;;;;;5073923;28;20063;-72
2022/01/12 10:56:24;;;;;;;39.55;20.60;;;-0.60;90.50;;;;;;5074308;28;19916;-73
2022/01/12 10:58:53;;;;;;;36.35;20.13;;;-0.60;90.20;;;;;;5074177;28;20020;-74
2022/01/12 11:01:21;;;;;;;42.90;20.70;;;-0.60;90.10;;;;;;5073944;28;20107;-72
2022/01/12 11:03:47;;;;;;;37.65;20.25;;;-0.50;90.00;;;;;;5073763;28;20039;-73
2022/01/12 11:06:14;;;;;;;35.22;19.33;;;-0.50;89.60;;;;;;5073327;28;20020;-74
2022/01/12 11:08:41;;;;;;;38.10;19.83;;;-0.50;89.30;;;;;;5073871;28;20052;-73
2022/01/12 11:11:08;;;;;;;36.45;20.20;;;-0.50;88.90;;;;;;5072993;28;20542;-72
2022/01/12 11:13:34;;;;;;;39.58;20.92;;;-0.50;88.60;;;;;;5073862;28;20043;-73
2022/01/12 11:16:00;;;;;;;38.60;20.10;;;-0.50;89.00;;;;;;5055322;28;20484;-73
2022/01/12 11:18:28;;;;;;;42.17;20.02;;;-0.50;89.00;;;;;;5073716;28;20037;-73
2022/01/12 11:21:03;;;;;;;36.97;21.20;;;-0.50;88.40;;;;;;5073132;28;20134;-72
2022/01/12 11:23:49;;;;;;;33.08;20.08;;;-0.50;88.80;;;;;;5073470;28;20477;-72
2022/01/12 11:26:26;;;;;;;39.42;20.10;;;-0.40;88.60;;;;;;5073149;28;20016;-72
2022/01/12 11:28:53;;;;;;;33.20;18.42;;;-0.40;88.50;;;;;;5073674;28;20406;-70
2022/01/12 11:31:34;;;;;;;35.60;18.50;;;-0.40;88.40;;;;;;5073267;28;20112;-73
2022/01/12 11:34:00;;;;;;;34.42;18.80;;;-0.40;86.70;;;;;;5072954;28;20029;-73
2022/01/12 11:36:37;;;;;;;30.70;18.00;;;-0.40;86.60;;;;;;5073253;28;20040;-73
2022/01/12 11:39:10;;;;;;;35.50;20.15;;;-0.40;87.00;;;;;;5072618;28;20020;-73
2022/01/12 11:41:37;;;;;;;34.65;19.73;;;-0.40;86.60;;;;;;5073161;28;20119;-73
2022/01/12 11:44:13;;;;;;;35.22;18.85;;;-0.40;86.50;;;;;;5072254;28;20027;-73
2022/01/12 11:46:47;;;;;;;33.15;18.70;;;-0.40;86.40;;;;;;5054780;28;20031;-73
2022/01/12 11:49:28;;;;;;;34.65;19.85;;;-0.40;85.90;;;;;;5054464;28;20400;-73
2022/01/12 11:51:55;;;;;;;37.15;19.58;;;-0.40;86.10;;;;;;5072795;28;20043;-71
2022/01/12 11:54:29;;;;;;;35.10;19.65;;;-0.40;86.10;;;;;;5072638;28;20189;-74
2022/01/12 11:56:59;;;;;;;33.00;18.98;;;-0.40;86.70;;;;;;5072626;28;20024;-71
2022/01/12 11:59:27;;;;;;;34.70;18.75;;;-0.40;86.60;;;;;;5054732;28;20040;-73
2022/01/12 12:02:08;;;;;;;41.50;20.77;;;-0.40;86.00;;;;;;5072798;28;20082;-73
2022/01/12 12:04:34;;;;;;;;;;;-0.40;86.20;;;;;;5073353;28;20020;-74
2022/01/12 12:07:10;;;;;;;34.15;18.42;;;-0.30;86.20;;;;;;5072293;28;20348;-74
2022/01/12 12:09:40;;;;;;;37.38;20.17;;;-0.30;86.00;;;;;;5072357;28;20040;-74
2022/01/12 12:12:17;;;;;;;34.97;19.50;;;-0.30;86.10;;;;;;5072134;28;20024;-73
2022/01/12 12:14:45;;;;;;;35.28;18.77;;;-0.20;86.50;;;;;;5071994;28;20024;-73
2022/01/12 12:17:11;;;;;;;34.25;19.83;;;-0.20;85.50;;;;;;5072003;28;20454;-73
2022/01/12 12:19:37;;;;;;;38.55;19.70;;;-0.20;85.20;;;;;;5072857;28;20420;-74
2022/01/12 12:22:31;;;;;;;35.65;20.27;;;-0.20;85.10;;;;;;5071961;28;20024;-72
2022/01/12 12:25:04;;;;;;;35.55;19.60;;;-0.20;85.10;;;;;;5069718;28;20070;-71
2022/01/12 12:27:31;;;;;;;31.98;18.85;;;-0.20;85.70;;;;;;5072486;28;20036;-75
2022/01/12 12:29:58;;;;;;;39.72;20.80;;;-0.10;86.20;;;;;;5071902;28;20067;-71
2022/01/12 12:32:55;;;;;;;35.25;19.13;;;0.00;86.20;;;;;;5072454;28;20098;-72
2022/01/12 12:35:23;;;;;;;36.90;20.00;;;0.10;85.30;;;;;;5071775;28;20052;-73
2022/01/12 12:37:53;;;;;;;42.55;20.90;;;0.20;85.20;;;;;;5072337;28;20024;-73
2022/01/12 12:40:19;;;;;;;41.22;20.55;;;0.20;84.70;;;;;;5071796;28;20024;-72
2022/01/12 12:42:48;;;;;;;35.28;20.23;;;0.30;85.10;;;;;;5072158;28;20025;-74
2022/01/12 12:45:14;;;;;;;33.47;19.33;;;0.30;83.80;;;;;;5071579;28;20029;-75
2022/01/12 12:47:40;;;;;;;35.42;20.60;;;0.40;84.00;;;;;;5072140;28;20028;-74
2022/01/12 12:50:09;;;;;;;39.28;20.15;;;0.40;83.80;;;;;;5071529;28;20036;-73
2022/01/12 12:52:38;;;;;;;36.60;19.67;;;0.40;83.60;;;;;;5072218;28;20028;-72
2022/01/12 12:55:10;;;;;;;42.53;20.35;;;0.40;83.10;;;;;;5071252;28;20186;-72
2022/01/12 12:57:52;;;;;;;34.28;18.98;;;0.40;83.20;;;;;;5072286;28;20029;-73
2022/01/12 13:00:23;;;;;;;36.45;20.58;;;0.40;83.10;;;;;;5071558;28;20107;-73
2022/01/12 13:02:51;;;;;;;38.15;19.17;;;0.40;83.00;;;;;;5071726;28;20376;-74
2022/01/12 13:05:25;;;;;;;37.20;20.45;;;0.50;83.40;;;;;;5071411;28;20029;-74
2022/01/12 13:07:52;;;;;;;37.75;20.45;;;0.50;83.40;;;;;;5072051;28;20036;-73
2022/01/12 13:10:21;;;;;;;35.58;19.42;;;0.50;83.50;;;;;;5071317;28;20135;-73
2022/01/12 13:12:51;;;;;;;35.75;19.75;;;0.50;83.20;;;;;;5071632;28;20442;-74
2022/01/12 13:15:18;;;;;;;35.28;20.10;;;0.50;83.20;;;;;;5071672;28;20033;-75
2022/01/12 13:17:44;;;;;;;38.50;19.65;;;0.50;83.10;;;;;;5071866;28;20025;-73
2022/01/12 13:22:49;;;;;;;37.17;20.80;;;0.50;83.30;;;;;;5071899;28;20466;-74
2022/01/12 13:25:17;;;;;;;37.75;20.48;;;0.40;83.10;;;;;;5072403;28;20024;-73
2022/01/12 13:27:46;;;;;;;43.53;20.40;;;0.40;83.70;;;;;;5075752;28;20024;-73
2022/01/12 13:30:25;;;;;;;39.95;20.73;;;0.30;84.30;;;;;;5074742;28;20071;-73
2022/01/12 13:32:55;;;;;;;38.45;22.02;;;0.30;84.10;;;;;;5075807;28;20039;-73
2022/01/12 13:35:35;;;;;;;36.80;20.30;;;0.30;84.50;;;;;;5075148;28;20410;-73
2022/01/12 13:38:04;;;;;;;37.42;20.90;;;0.30;84.90;;;;;;5075606;28;20060;-74
2022/01/12 13:40:41;;;;;;;38.53;20.63;;;0.20;85.30;;;;;;5075582;28;20035;-74
2022/01/12 13:43:07;;;;;;;36.50;20.98;;;0.20;85.80;;;;;;5074901;28;20047;-73
2022/01/12 13:45:44;;;;;;;37.28;20.70;;;0.30;86.20;;;;;;5075263;28;20021;-74
2022/01/12 13:48:17;;;;;;;35.28;20.67;;;0.20;86.20;;;;;;5074809;28;20040;-73
2022/01/12 13:50:54;;;;;;;38.42;20.80;;;0.20;86.50;;;;;;5075086;28;20024;-74
2022/01/12 13:53:33;;;;;;;38.08;20.75;;;0.20;86.30;;;;;;5074330;28;20109;-74
2022/01/12 13:55:59;;;;;;;39.00;20.95;;;0.20;86.50;;;;;;5075234;28;20064;-73
2022/01/12 13:58:27;;;;;;;36.25;20.85;;;0.20;86.70;;;;;;5074443;28;20029;-74
2022/01/12 14:01:07;;;;;;;38.95;21.90;;;0.20;86.80;;;;;;5057182;28;20054;-73